Time;durP1;ratioP1;P1;durP2;ratioP2;P2;SDS_P1;SDS_P2;PMS_P1;PMS_P2;Temp;Humidity;BMP_temperature;BMP_pressure;BME280_temperature;BME280_humidity;BME280_pressure;Samples;Min_cycle;Max_cycle;Signal;HPM_P1;HPM_P2
2022/12/14 00:00:45;;;;;;;84.88;38.03;;;-2.00;12.20;;;;;;5033034;28;20203;-68
2022/12/14 00:03:11;;;;;;;82.82;36.17;;;-2.00;12.60;;;;;;5031611;28;20282;-68
2022/12/14 00:05:36;;;;;;;83.33;36.67;;;-2.00;13.20;;;;;;5031177;28;20261;-69
2022/12/14 00:08:02;;;;;;;86.20;45.87;;;-2.00;13.40;;;;;;5032885;28;20269;-68
2022/12/14 00:10:28;;;;;;;80.88;41.78;;;-2.00;13.60;;;;;;5031481;28;20453;-69
2022/12/14 00:12:54;;;;;;;90.27;46.87;;;-2.00;13.40;;;;;;5032608;28;20629;-68
2022/12/14 00:15:19;;;;;;;91.30;51.67;;;-2.00;13.40;;;;;;5032791;28;20261;-68
2022/12/14 00:17:45;;;;;;;137.17;115.27;;;-2.00;13.40;;;;;;5032914;28;20182;-69
2022/12/14 00:20:10;;;;;;;89.13;45.60;;;-2.10;13.20;;;;;;5032561;28;20625;-68
2022/12/14 00:22:36;;;;;;;85.43;46.23;;;-2.00;13.30;;;;;;5031038;28;20187;-69
2022/12/14 00:25:02;;;;;;;86.83;45.43;;;-1.90;13.50;;;;;;5032804;28;20473;-68
2022/12/14 00:27:27;;;;;;;86.10;48.77;;;-1.80;13.40;;;;;;5032703;28;20177;-68
2022/12/14 00:29:53;;;;;;;85.93;45.97;;;-1.80;13.10;;;;;;5032438;28;20954;-69
2022/12/14 00:32:19;;;;;;;82.63;42.47;;;-1.80;12.80;;;;;;5032151;28;20521;-68
2022/12/14 00:34:44;;;;;;;81.43;46.37;;;-1.80;13.20;;;;;;5032445;28;20216;-68
2022/12/14 00:37:10;;;;;;;80.37;43.60;;;-1.70;12.70;;;;;;5032894;28;20208;-68
2022/12/14 00:39:36;;;;;;;84.13;43.85;;;-1.80;13.20;;;;;;5032434;28;20320;-69
2022/12/14 00:42:01;;;;;;;82.77;43.60;;;-1.70;13.10;;;;;;5032325;28;20183;-68
2022/12/14 00:44:27;;;;;;;85.93;48.23;;;-1.60;12.50;;;;;;5032129;28;20243;-69
2022/12/14 00:46:52;;;;;;;83.47;43.27;;;-1.70;12.60;;;;;;5031127;28;20182;-69
2022/12/14 00:49:18;;;;;;;101.27;83.07;;;-1.70;13.20;;;;;;5030962;28;20203;-69
2022/12/14 00:51:43;;;;;;;83.00;49.33;;;-1.70;14.10;;;;;;5030740;28;20205;-68
2022/12/14 00:54:09;;;;;;;85.10;48.47;;;-1.90;15.10;;;;;;5032265;28;20234;-68
2022/12/14 00:56:35;;;;;;;84.20;47.33;;;-1.90;15.70;;;;;;5032259;28;20175;-69
2022/12/14 00:59:00;;;;;;;81.90;51.43;;;-1.90;15.70;;;;;;5032166;28;20205;-68
2022/12/14 01:01:26;;;;;;;87.60;56.43;;;-1.90;15.70;;;;;;5030391;28;20219;-69
2022/12/14 01:04:15;;;;;;;85.40;52.40;;;-1.70;14.60;;;;;;5031820;28;20658;-69
2022/12/14 01:06:37;;;;;;;87.70;45.47;;;-1.60;13.40;;;;;;5031920;28;20178;-71
2022/12/14 01:09:02;;;;;;;81.50;43.70;;;-1.60;13.40;;;;;;5032006;28;20477;-69
2022/12/14 01:11:28;;;;;;;88.23;45.50;;;-1.50;13.10;;;;;;5031671;28;20186;-68
2022/12/14 01:13:55;;;;;;;82.53;47.90;;;-1.50;12.90;;;;;;5030381;28;20190;-68
2022/12/14 01:16:21;;;;;;;84.88;40.95;;;-1.50;12.90;;;;;;5032340;28;20178;-68
2022/12/14 01:18:46;;;;;;;85.63;45.95;;;-1.40;12.90;;;;;;5032579;28;20198;-68
2022/12/14 01:21:20;;;;;;;86.93;47.50;;;-1.40;12.60;;;;;;5035799;28;20557;-69
2022/12/14 01:23:47;;;;;;;85.50;42.78;;;-1.40;12.90;;;;;;5036026;28;20643;-68
2022/12/14 01:26:15;;;;;;;81.53;43.58;;;-1.30;12.60;;;;;;5034377;28;20731;-68
2022/12/14 01:28:40;;;;;;;90.38;46.35;;;-1.30;12.40;;;;;;5035637;28;20197;-69
2022/12/14 01:31:13;;;;;;;87.67;48.17;;;-1.30;11.90;;;;;;5035741;28;20186;-69
2022/12/14 01:33:39;;;;;;;93.50;47.28;;;-1.30;11.90;;;;;;5035565;28;20198;-68
2022/12/14 01:36:08;;;;;;;82.93;44.57;;;-1.30;11.90;;;;;;5035610;28;20181;-69
2022/12/14 01:38:34;;;;;;;85.60;44.30;;;-1.30;12.10;;;;;;5035623;28;20670;-68
2022/12/14 01:41:00;;;;;;;82.60;44.90;;;-1.30;12.70;;;;;;5035541;28;20209;-68
2022/12/14 01:43:45;;;;;;;84.83;50.20;;;-1.20;12.90;;;;;;5035139;28;20959;-68
2022/12/14 01:46:11;;;;;;;87.95;44.13;;;-1.20;12.30;;;;;;5035613;28;20413;-69
2022/12/14 01:48:37;;;;;;;82.57;44.97;;;-1.20;13.00;;;;;;5035328;28;20528;-69
2022/12/14 01:51:03;;;;;;;83.93;45.53;;;-1.10;12.90;;;;;;5034074;28;20179;-69
2022/12/14 01:53:28;;;;;;;83.23;44.87;;;-1.20;12.50;;;;;;5034962;28;20183;-69
2022/12/14 01:55:55;;;;;;;83.90;42.80;;;-1.10;12.40;;;;;;5035232;28;20175;-69
2022/12/14 01:58:23;;;;;;;87.65;52.00;;;-1.10;12.00;;;;;;5035061;28;20173;-69
2022/12/14 02:00:53;;;;;;;82.25;46.35;;;-1.10;12.00;;;;;;5033787;28;20225;-69
2022/12/14 02:03:36;;;;;;;83.18;43.90;;;-1.10;12.00;;;;;;5034870;28;20645;-69
2022/12/14 02:06:08;;;;;;;86.15;56.45;;;-1.00;12.10;;;;;;5034982;28;20278;-69
2022/12/14 02:08:33;;;;;;;84.40;51.53;;;-1.10;12.00;;;;;;5033694;28;20202;-69
2022/12/14 02:11:00;;;;;;;98.90;69.57;;;-1.00;12.50;;;;;;5034988;28;20177;-69
2022/12/14 02:13:37;;;;;;;84.00;43.13;;;-1.00;12.10;;;;;;5033333;28;20497;-68
2022/12/14 02:16:03;;;;;;;83.35;45.42;;;-1.10;12.40;;;;;;5034941;28;20185;-69
2022/12/14 02:18:31;;;;;;;82.37;46.07;;;-1.00;12.70;;;;;;5033508;28;20179;-69
2022/12/14 02:21:17;;;;;;;86.03;46.53;;;-1.00;12.40;;;;;;5034602;28;20457;-69
2022/12/14 02:23:52;;;;;;;84.05;45.83;;;-1.00;12.60;;;;;;5034428;28;20182;-68
2022/12/14 02:26:36;;;;;;;271.08;243.30;;;-0.90;12.70;;;;;;5033339;28;20182;-68
2022/12/14 02:29:19;;;;;;;84.07;50.22;;;-0.90;12.70;;;;;;5033967;28;20254;-69
2022/12/14 02:31:56;;;;;;;90.25;63.30;;;-0.90;12.50;;;;;;5034100;28;20268;-68
2022/12/14 02:34:38;;;;;;;86.55;54.60;;;-1.00;12.50;;;;;;5033432;28;20778;-69
2022/12/14 02:37:23;;;;;;;86.97;50.20;;;-1.10;12.80;;;;;;5034507;28;20182;-69
2022/12/14 02:40:00;;;;;;;84.35;52.47;;;-1.20;13.10;;;;;;5033116;28;20202;-68
2022/12/14 02:42:49;;;;;;;83.75;42.78;;;-1.10;13.10;;;;;;5032645;28;20179;-68
2022/12/14 02:45:33;;;;;;;88.30;50.78;;;-1.10;13.40;;;;;;5031290;28;20676;-69
2022/12/14 02:48:15;;;;;;;86.68;50.92;;;-1.00;13.70;;;;;;5034197;28;20220;-68
2022/12/14 02:50:59;;;;;;;84.05;49.97;;;-1.10;14.20;;;;;;5034071;28;20238;-68
2022/12/14 02:53:48;;;;;;;92.00;53.90;;;-1.10;15.00;;;;;;5033918;28;20253;-68
2022/12/14 02:56:21;;;;;;;88.32;52.30;;;-1.00;15.30;;;;;;5029917;28;20190;-69
2022/12/14 02:58:49;;;;;;;92.97;52.13;;;-1.10;15.60;;;;;;5033959;28;20282;-68
2022/12/14 03:01:19;;;;;;;87.47;47.63;;;-1.10;16.30;;;;;;5034080;28;20214;-69
2022/12/14 03:03:45;;;;;;;90.55;50.53;;;-1.00;16.30;;;;;;5033768;28;20175;-68
2022/12/14 03:06:29;;;;;;;84.07;47.07;;;-0.90;16.40;;;;;;5033964;28;20179;-68
2022/12/14 03:09:16;;;;;;;91.20;50.15;;;-0.90;16.40;;;;;;5032726;28;20202;-69
2022/12/14 03:11:51;;;;;;;85.53;49.70;;;-0.80;16.30;;;;;;5033610;28;20258;-69
2022/12/14 03:14:30;;;;;;;89.22;53.10;;;-0.80;16.40;;;;;;5033926;28;20268;-69
2022/12/14 03:17:03;;;;;;;90.80;66.22;;;-0.80;16.10;;;;;;5032542;28;20182;-69
2022/12/14 03:20:08;;;;;;;88.80;51.25;;;-0.90;16.40;;;;;;5032350;28;20206;-69
2022/12/14 03:22:54;;;;;;;94.97;63.15;;;-0.90;16.40;;;;;;5033256;28;20246;-69
2022/12/14 03:25:28;;;;;;;99.85;66.00;;;-0.80;15.90;;;;;;5032399;28;20175;-69
2022/12/14 03:28:04;;;;;;;100.38;66.93;;;-0.70;16.10;;;;;;5033379;28;20179;-69
2022/12/14 03:30:34;;;;;;;90.05;60.03;;;-0.60;15.80;;;;;;5033374;28;20210;-69
2022/12/14 03:33:05;;;;;;;87.60;46.65;;;-0.60;15.60;;;;;;5033162;28;20221;-69
2022/12/14 03:35:44;;;;;;;91.47;56.40;;;-0.50;15.30;;;;;;5033374;28;20185;-69
2022/12/14 03:38:27;;;;;;;100.10;64.50;;;-0.50;15.50;;;;;;5033370;28;20546;-68
2022/12/14 03:41:33;;;;;;;89.95;53.28;;;-0.50;15.20;;;;;;5031037;28;20222;-69
2022/12/14 03:44:18;;;;;;;89.53;50.03;;;-0.50;15.50;;;;;;5030148;28;20190;-69
2022/12/14 03:47:10;;;;;;;100.97;66.18;;;-0.40;15.00;;;;;;5021742;28;20225;-68
2022/12/14 03:50:24;;;;;;;102.85;61.67;;;-0.40;15.20;;;;;;5031283;28;20683;-69
2022/12/14 03:53:15;;;;;;;99.70;64.80;;;-0.40;15.30;;;;;;5028121;28;20205;-68
2022/12/14 03:55:52;;;;;;;104.40;74.68;;;-0.60;15.80;;;;;;5033049;28;20175;-68
2022/12/14 03:58:24;;;;;;;88.20;54.25;;;-0.40;15.80;;;;;;5031792;28;20543;-69
2022/12/14 04:00:57;;;;;;;87.85;53.58;;;-0.40;14.40;;;;;;5032939;28;20296;-69
2022/12/14 04:03:32;;;;;;;95.07;70.25;;;-0.40;14.60;;;;;;5032659;28;20317;-68
2022/12/14 04:06:13;;;;;;;89.97;51.67;;;-0.50;14.30;;;;;;5032899;28;20186;-69
2022/12/14 04:09:14;;;;;;;91.72;58.08;;;-0.40;14.30;;;;;;5032811;28;20195;-68
2022/12/14 04:20:21;;;;;;;96.00;56.85;;;-0.50;14.70;;;;;;5061810;28;20208;-68
2022/12/14 04:22:53;;;;;;;97.40;63.42;;;-0.50;14.40;;;;;;5070869;28;20530;-69
2022/12/14 04:31:27;;;;;;;87.25;49.30;;;-0.60;14.80;;;;;;5072132;28;20223;-69
2022/12/14 04:33:56;;;;;;;92.57;55.80;;;-0.50;14.90;;;;;;5072056;28;20174;-68
2022/12/14 04:36:40;;;;;;;93.07;59.67;;;-0.50;14.60;;;;;;5072014;28;20185;-69
2022/12/14 04:39:12;;;;;;;92.35;52.97;;;-0.40;15.00;;;;;;5071957;28;20841;-68
2022/12/14 04:41:42;;;;;;;93.13;54.70;;;-0.30;14.50;;;;;;5071955;28;20216;-68
2022/12/14 04:44:25;;;;;;;94.30;63.30;;;-0.30;14.50;;;;;;5072299;28;20289;-68
2022/12/14 04:46:53;;;;;;;91.10;51.15;;;-0.40;14.70;;;;;;5071886;28;20174;-68
2022/12/14 04:49:30;;;;;;;95.75;58.40;;;-0.30;14.80;;;;;;5070466;28;20190;-68
2022/12/14 04:52:05;;;;;;;96.57;66.80;;;-0.20;14.50;;;;;;5071604;28;20188;-68
2022/12/14 04:54:39;;;;;;;100.97;70.30;;;-0.10;14.60;;;;;;5071888;28;20201;-68
2022/12/14 04:57:16;;;;;;;96.50;68.50;;;-0.10;14.40;;;;;;5071934;28;20216;-68
2022/12/14 04:59:43;;;;;;;120.05;100.85;;;0.00;14.50;;;;;;5071600;28;20189;-68
2022/12/14 05:02:25;;;;;;;106.25;85.20;;;0.00;14.60;;;;;;5071549;28;20637;-68
2022/12/14 05:05:06;;;;;;;112.95;90.85;;;-0.10;15.20;;;;;;5071772;28;20231;-68
2022/12/14 05:07:59;;;;;;;110.32;94.88;;;-0.40;15.80;;;;;;5071714;28;20264;-68
2022/12/14 05:10:52;;;;;;;94.53;59.85;;;-0.20;15.70;;;;;;5071628;28;20255;-67
2022/12/14 05:13:39;;;;;;;99.40;78.97;;;-0.20;15.90;;;;;;5070150;28;20183;-67
2022/12/14 05:16:06;;;;;;;102.43;79.95;;;-0.10;16.00;;;;;;5070572;28;20178;-68
2022/12/14 05:18:33;;;;;;;101.75;72.53;;;-0.20;15.90;;;;;;5071697;28;20671;-67
2022/12/14 05:20:59;;;;;;;99.50;66.03;;;-0.10;16.20;;;;;;5071526;28;20205;-68
2022/12/14 05:23:24;;;;;;;103.87;83.87;;;0.00;15.80;;;;;;5070095;28;20170;-68
2022/12/14 05:25:50;;;;;;;117.47;91.60;;;-0.10;16.10;;;;;;5070230;28;20581;-68
2022/12/14 05:28:15;;;;;;;104.70;85.97;;;0.00;16.30;;;;;;5071589;28;20639;-68
2022/12/14 05:30:41;;;;;;;95.13;57.33;;;0.10;16.40;;;;;;5081218;28;20505;-68
2022/12/14 05:33:15;;;;;;;108.10;84.13;;;0.10;15.80;;;;;;5082937;28;20185;-68
2022/12/14 05:35:40;;;;;;;107.97;85.75;;;0.10;16.10;;;;;;5083678;28;20249;-68
2022/12/14 05:38:06;;;;;;;106.90;93.83;;;0.20;15.80;;;;;;5074915;28;20186;-68
2022/12/14 05:40:31;;;;;;;96.83;64.70;;;0.10;16.00;;;;;;5062270;28;20202;-68
2022/12/14 05:43:04;;;;;;;108.50;93.73;;;0.00;16.60;;;;;;5063506;28;20193;-69
2022/12/14 05:45:30;;;;;;;97.28;66.40;;;0.00;17.00;;;;;;5061393;28;20238;-68
2022/12/14 05:47:55;;;;;;;110.13;83.57;;;-0.10;16.20;;;;;;5061821;28;20556;-68
2022/12/14 05:50:21;;;;;;;104.00;80.10;;;-0.20;16.00;;;;;;5061497;28;20241;-68
2022/12/14 05:52:49;;;;;;;101.10;76.77;;;-0.20;16.80;;;;;;5058147;28;20179;-68
2022/12/14 05:55:15;;;;;;;97.25;64.28;;;-0.40;16.40;;;;;;5058259;28;20182;-67
2022/12/14 05:57:40;;;;;;;149.90;135.23;;;-0.50;16.60;;;;;;5054292;28;20220;-69
2022/12/14 06:00:07;;;;;;;99.67;68.33;;;-0.60;16.60;;;;;;5057733;28;20206;-70
2022/12/14 06:02:33;;;;;;;92.03;59.28;;;-0.60;16.60;;;;;;5056975;28;20221;-71
2022/12/14 06:04:58;;;;;;;101.00;77.17;;;-0.60;16.60;;;;;;5054837;28;20175;-69
2022/12/14 06:07:24;;;;;;;92.90;62.43;;;-0.70;16.70;;;;;;5055726;28;20171;-69
2022/12/14 06:09:49;;;;;;;96.77;61.77;;;-0.80;17.40;;;;;;5055413;28;20202;-69
2022/12/14 06:12:15;;;;;;;107.90;81.57;;;-0.80;17.20;;;;;;5055103;28;20195;-70
2022/12/14 06:14:40;;;;;;;98.33;47.70;;;-0.90;17.60;;;;;;5055321;28;20178;-70
2022/12/14 06:17:06;;;;;;;91.63;51.67;;;-1.00;18.40;;;;;;5055082;28;20178;-69
2022/12/14 06:19:32;;;;;;;94.28;58.97;;;-1.00;18.10;;;;;;5056197;28;20554;-70
2022/12/14 06:21:57;;;;;;;101.13;61.30;;;-1.00;17.90;;;;;;5055089;28;20231;-70
2022/12/14 06:24:23;;;;;;;107.07;76.57;;;-1.00;18.10;;;;;;5055308;28;20178;-69
2022/12/14 06:26:48;;;;;;;92.77;58.10;;;-1.00;18.60;;;;;;5055839;28;20200;-71
2022/12/14 06:29:16;;;;;;;106.10;88.67;;;-1.00;18.20;;;;;;5064658;28;20598;-71
2022/12/14 06:31:42;;;;;;;99.72;72.32;;;-0.90;18.50;;;;;;5065435;28;20174;-70
2022/12/14 06:34:09;;;;;;;103.97;79.55;;;-0.80;18.10;;;;;;5064852;28;20181;-71
2022/12/14 06:36:37;;;;;;;102.85;82.22;;;-0.90;18.30;;;;;;5065783;28;20185;-71
2022/12/14 06:39:06;;;;;;;115.35;98.85;;;-0.80;18.10;;;;;;5064986;28;20206;-71
2022/12/14 06:41:31;;;;;;;112.15;89.10;;;-0.80;17.80;;;;;;5063303;28;20210;-69
2022/12/14 06:44:05;;;;;;;104.13;78.10;;;-0.80;18.10;;;;;;5064224;28;20186;-70
2022/12/14 06:46:32;;;;;;;103.18;82.95;;;-0.90;18.20;;;;;;5065017;28;20230;-70
2022/12/14 06:48:57;;;;;;;107.85;82.90;;;-1.00;18.20;;;;;;5065231;28;20683;-70
2022/12/14 06:51:24;;;;;;;94.47;64.37;;;-0.90;17.60;;;;;;5065616;28;20189;-70
2022/12/14 06:53:51;;;;;;;97.03;66.00;;;-1.00;17.90;;;;;;5066007;28;20208;-69
2022/12/14 06:56:17;;;;;;;127.82;113.90;;;-1.00;17.90;;;;;;5065339;28;20179;-70
2022/12/14 06:58:43;;;;;;;93.25;54.53;;;-1.00;17.60;;;;;;5065999;28;20181;-70
2022/12/14 07:01:19;;;;;;;92.00;51.27;;;-1.10;18.20;;;;;;5065926;28;20712;-70
2022/12/14 07:03:47;;;;;;;97.28;59.80;;;-1.10;17.90;;;;;;5064211;28;20413;-70
2022/12/14 07:06:13;;;;;;;100.55;72.07;;;-1.00;17.90;;;;;;5060693;28;20210;-71
2022/12/14 07:08:39;;;;;;;88.40;52.27;;;-0.90;17.30;;;;;;5061633;28;20205;-71
2022/12/14 07:11:08;;;;;;;105.23;83.83;;;-1.00;17.50;;;;;;5062816;28;20177;-69
2022/12/14 07:13:34;;;;;;;95.38;67.57;;;-0.90;17.10;;;;;;5060675;28;20192;-71
2022/12/14 07:16:01;;;;;;;92.80;61.63;;;-0.90;16.80;;;;;;5061164;28;20177;-72
2022/12/14 07:18:27;;;;;;;106.95;74.13;;;-0.90;16.80;;;;;;5060046;28;20434;-70
2022/12/14 07:21:01;;;;;;;98.10;58.30;;;-1.00;17.60;;;;;;5061131;28;20252;-71
2022/12/14 07:23:29;;;;;;;102.55;69.70;;;-1.00;17.40;;;;;;5060112;28;20227;-70
2022/12/14 07:26:02;;;;;;;104.10;66.82;;;-1.00;17.90;;;;;;5060261;28;20175;-71
2022/12/14 07:28:28;;;;;;;102.20;78.70;;;-1.00;17.90;;;;;;5060071;28;20185;-69
2022/12/14 07:30:54;;;;;;;99.50;66.55;;;-1.00;18.30;;;;;;5058505;28;20178;-73
2022/12/14 07:33:20;;;;;;;99.78;65.93;;;-1.00;18.40;;;;;;5056427;28;20181;-73
2022/12/14 07:35:46;;;;;;;98.47;66.30;;;-1.10;18.80;;;;;;5058256;28;20181;-72
2022/12/14 07:38:11;;;;;;;106.30;80.33;;;-1.00;18.40;;;;;;5054039;28;20296;-69
2022/12/14 07:40:37;;;;;;;99.60;70.80;;;-1.00;18.90;;;;;;5052969;28;20460;-70
2022/12/14 07:43:03;;;;;;;101.80;73.57;;;-1.00;18.90;;;;;;5052975;28;20189;-70
2022/12/14 07:45:29;;;;;;;106.00;68.90;;;-0.90;19.00;;;;;;5053119;28;20178;-70
2022/12/14 07:47:55;;;;;;;99.78;68.80;;;-0.90;19.10;;;;;;5053035;28;20171;-70
2022/12/14 07:50:20;;;;;;;97.47;62.47;;;-0.90;18.70;;;;;;5052867;28;20293;-70
2022/12/14 07:52:46;;;;;;;108.40;80.23;;;-1.00;19.20;;;;;;5052607;28;20458;-69
2022/12/14 07:55:11;;;;;;;95.37;49.30;;;-1.00;19.70;;;;;;5051607;28;20246;-69
2022/12/14 07:57:37;;;;;;;95.57;48.07;;;-1.00;19.90;;;;;;5052868;28;20183;-71
2022/12/14 08:00:03;;;;;;;102.90;67.80;;;-0.90;19.60;;;;;;5051506;28;20704;-71
2022/12/14 08:02:29;;;;;;;92.65;52.55;;;-0.90;19.60;;;;;;5052934;28;20186;-69
2022/12/14 08:04:55;;;;;;;106.03;79.63;;;;;;;;;;5057954;28;20170;-69
2022/12/14 08:07:20;;;;;;;95.32;57.50;;;-0.90;19.00;;;;;;5058031;28;20177;-69
2022/12/14 08:09:46;;;;;;;98.03;64.73;;;-0.90;20.00;;;;;;5056706;28;20244;-69
2022/12/14 08:12:12;;;;;;;108.70;89.25;;;-0.80;19.30;;;;;;5056813;28;20178;-69
2022/12/14 08:14:38;;;;;;;100.07;61.50;;;-0.80;19.90;;;;;;5055255;28;20254;-70
2022/12/14 08:17:03;;;;;;;104.93;69.13;;;-0.70;20.00;;;;;;5055168;28;20209;-70
2022/12/14 08:19:29;;;;;;;98.90;60.33;;;-0.70;20.60;;;;;;5055456;28;20206;-70
2022/12/14 08:21:54;;;;;;;106.20;70.03;;;-0.50;20.30;;;;;;5056063;28;20207;-68
2022/12/14 08:24:20;;;;;;;105.80;71.80;;;-0.50;19.90;;;;;;5053270;28;20202;-68
2022/12/14 08:26:45;;;;;;;102.03;67.30;;;-0.50;19.90;;;;;;5055190;28;20216;-68
2022/12/14 08:29:13;;;;;;;104.10;72.40;;;-0.40;20.70;;;;;;5052775;28;20210;-68
2022/12/14 08:31:39;;;;;;;98.45;63.15;;;-0.30;20.20;;;;;;5051917;28;20178;-67
2022/12/14 08:34:04;;;;;;;101.60;65.53;;;-0.20;21.00;;;;;;5054521;28;20675;-67
2022/12/14 08:36:32;;;;;;;105.93;85.93;;;-0.20;20.20;;;;;;5054009;28;20173;-70
2022/12/14 08:39:03;;;;;;;97.18;61.13;;;-0.20;20.70;;;;;;5052554;28;20569;-70
2022/12/14 08:41:29;;;;;;;99.95;61.55;;;-0.30;20.90;;;;;;5053715;28;20259;-70
2022/12/14 08:43:57;;;;;;;98.37;66.50;;;-0.30;20.90;;;;;;5053555;28;20590;-70
2022/12/14 08:46:24;;;;;;;101.45;76.40;;;-0.30;21.50;;;;;;5054625;28;20189;-70
2022/12/14 08:48:50;;;;;;;127.25;111.05;;;-0.40;22.60;;;;;;5053798;28;20202;-69
2022/12/14 08:51:16;;;;;;;105.22;77.43;;;-0.40;21.60;;;;;;5053499;28;20224;-69
2022/12/14 08:53:42;;;;;;;103.07;73.40;;;-0.50;22.60;;;;;;5053557;28;20656;-69
2022/12/14 08:56:13;;;;;;;102.63;69.23;;;-0.40;22.60;;;;;;5055341;28;20994;-67
2022/12/14 08:58:39;;;;;;;101.63;73.95;;;-0.40;22.80;;;;;;5053587;28;20193;-67
2022/12/14 09:01:12;;;;;;;98.20;66.55;;;-0.30;22.70;;;;;;5055157;28;20676;-67
2022/12/14 09:03:43;;;;;;;104.93;86.75;;;-0.30;22.50;;;;;;5054615;28;20548;-68
2022/12/14 09:06:10;;;;;;;112.18;85.65;;;-0.10;22.80;;;;;;5054820;28;20212;-68
2022/12/14 09:08:36;;;;;;;104.25;77.85;;;0.00;22.40;;;;;;5056121;28;20253;-69
2022/12/14 09:11:03;;;;;;;104.03;81.37;;;0.10;21.50;;;;;;5055914;28;20222;-70
2022/12/14 09:13:29;;;;;;;102.13;71.38;;;0.00;21.70;;;;;;5055529;28;20181;-68
2022/12/14 09:16:06;;;;;;;98.93;64.63;;;0.00;22.00;;;;;;5058312;28;20269;-70
2022/12/14 09:18:33;;;;;;;101.90;67.75;;;-0.10;22.90;;;;;;5054392;28;20192;-68
2022/12/14 09:20:59;;;;;;;104.13;71.20;;;-0.10;22.60;;;;;;5050369;28;20238;-67
2022/12/14 09:23:27;;;;;;;149.23;133.70;;;-0.10;23.30;;;;;;5051203;28;20183;-68
2022/12/14 09:26:02;;;;;;;126.40;98.07;;;-0.10;22.90;;;;;;5048173;28;20272;-68
2022/12/14 09:28:28;;;;;;;112.85;90.80;;;-0.20;23.70;;;;;;5048318;28;20544;-68
2022/12/14 09:30:59;;;;;;;113.18;89.47;;;-0.10;24.00;;;;;;5051520;28;20187;-68
2022/12/14 09:33:26;;;;;;;144.55;127.93;;;-0.10;23.70;;;;;;5050618;28;20186;-68
2022/12/14 09:35:51;;;;;;;117.05;87.03;;;-0.10;23.90;;;;;;5050115;28;20358;-69
2022/12/14 09:38:19;;;;;;;104.90;77.60;;;0.00;23.80;;;;;;5049984;28;20664;-68
2022/12/14 09:40:55;;;;;;;103.00;75.80;;;0.00;23.70;;;;;;5054268;28;20695;-67
2022/12/14 09:43:52;;;;;;;109.20;71.38;;;0.00;23.40;;;;;;5054299;28;20663;-67
2022/12/14 09:46:49;;;;;;;104.40;72.10;;;-0.10;23.30;;;;;;5055238;28;20358;-68
2022/12/14 09:49:35;;;;;;;109.25;79.70;;;-0.10;24.20;;;;;;5071706;28;20210;-67
2022/12/14 09:52:03;;;;;;;104.55;73.35;;;-0.10;23.50;;;;;;5075174;28;20204;-68
2022/12/14 09:54:33;;;;;;;109.07;84.00;;;-0.20;24.00;;;;;;5073889;28;20188;-68
2022/12/14 09:57:28;;;;;;;110.22;84.82;;;-0.20;24.00;;;;;;5072491;28;20185;-68
2022/12/14 09:59:54;;;;;;;115.07;72.30;;;-0.10;24.70;;;;;;5071802;28;20237;-68
2022/12/14 10:02:28;;;;;;;105.55;77.30;;;-0.10;24.50;;;;;;5071816;28;20182;-69
2022/12/14 10:05:19;;;;;;;108.03;87.55;;;0.00;24.40;;;;;;5072174;28;20608;-69
2022/12/14 10:07:47;;;;;;;129.30;89.00;;;0.10;24.00;;;;;;5073107;28;20224;-68
2022/12/14 10:10:22;;;;;;;125.45;111.90;;;0.10;24.00;;;;;;5072533;28;20251;-68
2022/12/14 10:13:18;;;;;;;114.25;92.93;;;0.20;24.60;;;;;;5072879;28;20185;-68
2022/12/14 10:16:17;;;;;;;117.18;102.70;;;0.30;23.40;;;;;;5075189;28;20182;-68
2022/12/14 10:19:05;;;;;;;107.35;74.80;;;0.40;23.30;;;;;;5073855;28;20193;-69
2022/12/14 10:21:45;;;;;;;113.45;95.15;;;0.30;22.80;;;;;;5072778;28;20205;-67
2022/12/14 10:24:25;;;;;;;115.00;89.97;;;0.30;23.40;;;;;;5072641;28;20174;-68
2022/12/14 10:26:54;;;;;;;110.53;84.90;;;0.20;24.00;;;;;;5056144;28;20243;-68
2022/12/14 10:29:47;;;;;;;116.43;101.43;;;0.40;23.90;;;;;;5040389;28;20215;-68
2022/12/14 10:32:32;;;;;;;115.80;103.38;;;0.50;23.90;;;;;;5038867;28;20191;-69
2022/12/14 10:34:59;;;;;;;115.80;92.57;;;0.40;24.20;;;;;;5037275;28;20175;-68
2022/12/14 10:37:35;;;;;;;105.60;80.97;;;0.70;23.60;;;;;;5036316;28;20182;-68
2022/12/14 10:40:09;;;;;;;114.18;95.78;;;0.80;23.20;;;;;;5037402;28;20304;-68
2022/12/14 10:42:47;;;;;;;118.72;96.20;;;1.00;21.90;;;;;;5051328;28;20284;-67
2022/12/14 10:45:31;;;;;;;111.57;92.55;;;1.10;21.90;;;;;;5053428;28;20178;-68
2022/12/14 10:48:26;;;;;;;103.30;67.57;;;1.20;21.50;;;;;;5053591;28;20186;-69
2022/12/14 10:51:07;;;;;;;117.80;78.65;;;1.30;21.70;;;;;;5052101;28;20672;-68
2022/12/14 10:53:59;;;;;;;115.78;87.32;;;1.10;21.80;;;;;;5052905;28;20240;-68
2022/12/14 10:56:34;;;;;;;131.57;105.13;;;1.00;22.50;;;;;;5042051;28;20222;-69
2022/12/14 10:59:28;;;;;;;114.80;93.90;;;1.10;22.40;;;;;;5053285;28;20198;-68
2022/12/14 11:02:07;;;;;;;109.45;80.90;;;1.30;23.00;;;;;;5030380;28;20636;-69
2022/12/14 11:04:43;;;;;;;112.40;91.57;;;1.50;22.60;;;;;;5032461;28;20808;-68
2022/12/14 11:07:11;;;;;;;118.07;94.28;;;1.50;22.00;;;;;;5030625;28;20179;-68
2022/12/14 11:09:38;;;;;;;119.55;92.95;;;1.60;21.60;;;;;;5032217;28;20567;-68
2022/12/14 11:12:13;;;;;;;108.32;85.60;;;1.50;22.10;;;;;;5030295;28;20174;-68
2022/12/14 11:14:55;;;;;;;117.35;102.93;;;1.40;23.10;;;;;;5030936;28;20274;-68
2022/12/14 11:17:39;;;;;;;113.30;86.57;;;1.60;22.60;;;;;;5029686;28;20201;-69
2022/12/14 11:20:13;;;;;;;108.15;88.40;;;1.70;22.20;;;;;;5031468;28;20579;-69
2022/12/14 11:23:17;;;;;;;108.68;88.65;;;1.90;21.80;;;;;;5035409;28;20167;-68
2022/12/14 11:25:45;;;;;;;112.15;88.70;;;2.30;20.20;;;;;;5035937;28;20163;-68
2022/12/14 11:28:21;;;;;;;107.18;77.25;;;2.40;19.70;;;;;;5037106;28;20176;-70
2022/12/14 11:31:19;;;;;;;233.30;214.30;;;2.50;19.70;;;;;;5080847;22;20224;-73
2022/12/14 11:33:49;;;;;;;143.35;128.95;;;2.60;18.70;;;;;;5070628;28;20589;-70
2022/12/14 11:36:36;;;;;;;142.25;127.88;;;2.60;19.10;;;;;;5073730;28;20167;-70
2022/12/14 11:39:22;;;;;;;135.07;120.15;;;2.80;19.60;;;;;;5073472;28;20209;-71
2022/12/14 11:42:00;;;;;;;179.05;163.32;;;3.00;18.90;;;;;;5073516;28;20202;-69
2022/12/14 11:44:28;;;;;;;141.70;128.05;;;3.10;18.70;;;;;;5073106;28;20184;-69
2022/12/14 11:47:00;;;;;;;176.18;160.10;;;3.10;18.90;;;;;;5073247;28;20635;-69
2022/12/14 11:49:36;;;;;;;117.90;100.68;;;3.10;18.90;;;;;;5073004;28;20550;-68
2022/12/14 11:52:04;;;;;;;166.00;151.65;;;3.30;18.00;;;;;;5072846;28;20170;-68
2022/12/14 11:54:37;;;;;;;118.35;104.15;;;3.30;18.50;;;;;;5072814;28;20260;-68
2022/12/14 11:57:28;;;;;;;147.52;132.90;;;3.30;18.50;;;;;;5072925;28;20603;-69
2022/12/14 12:00:20;;;;;;;163.63;148.65;;;3.10;18.00;;;;;;5088391;28;20235;-69
2022/12/14 12:02:49;;;;;;;105.45;75.93;;;2.90;18.80;;;;;;5071849;28;20175;-69
2022/12/14 12:05:20;;;;;;;122.93;108.55;;;2.80;19.40;;;;;;5072778;28;20654;-68
2022/12/14 12:07:48;;;;;;;159.75;144.88;;;2.90;19.10;;;;;;5072834;28;20177;-69
2022/12/14 12:10:32;;;;;;;144.25;129.80;;;2.90;19.10;;;;;;5072626;28;20202;-69
2022/12/14 12:13:04;;;;;;;203.98;187.30;;;2.80;19.50;;;;;;5072409;28;20200;-69
2022/12/14 12:15:38;;;;;;;166.40;150.95;;;2.80;19.60;;;;;;5072520;28;20186;-69
2022/12/14 12:18:15;;;;;;;154.52;139.65;;;2.70;20.40;;;;;;5072590;28;20175;-69
2022/12/14 12:20:59;;;;;;;152.70;133.23;;;2.70;20.90;;;;;;5072461;28;20218;-69
2022/12/14 12:23:36;;;;;;;166.85;151.40;;;2.80;21.10;;;;;;5087743;28;20518;-69
2022/12/14 12:26:14;;;;;;;164.77;150.07;;;2.80;21.50;;;;;;5072520;28;20160;-69
2022/12/14 12:28:47;;;;;;;132.77;118.35;;;2.90;21.60;;;;;;5072372;28;20157;-69
2022/12/14 12:31:19;;;;;;;130.52;117.35;;;3.10;21.10;;;;;;5072302;28;20681;-69
2022/12/14 12:33:55;;;;;;;160.90;146.65;;;3.20;20.90;;;;;;5072363;28;20168;-69
2022/12/14 12:36:22;;;;;;;199.07;182.20;;;3.40;20.50;;;;;;5072429;28;20167;-69
2022/12/14 12:39:00;;;;;;;230.45;212.80;;;3.40;19.90;;;;;;5072134;28;20587;-69
2022/12/14 12:41:31;;;;;;;122.57;110.07;;;3.40;20.00;;;;;;5072018;28;20298;-69
2022/12/14 12:44:17;;;;;;;171.65;156.52;;;3.40;20.20;;;;;;5072374;28;20169;-70
2022/12/14 12:46:57;;;;;;;216.70;199.23;;;3.40;20.30;;;;;;5072645;28;20184;-72
2022/12/14 12:49:22;;;;;;;252.55;233.73;;;3.30;20.70;;;;;;5072226;28;20212;-73
2022/12/14 12:51:59;;;;;;;190.00;174.07;;;3.30;20.70;;;;;;5072110;28;20204;-71
2022/12/14 12:54:40;;;;;;;254.00;235.65;;;3.40;20.90;;;;;;5072250;28;20196;-70
2022/12/14 12:57:09;;;;;;;210.88;194.40;;;3.40;21.10;;;;;;5087944;28;20173;-70
2022/12/14 12:59:52;;;;;;;201.32;184.65;;;3.50;21.20;;;;;;5071940;28;20659;-70
2022/12/14 13:02:34;;;;;;;304.60;283.80;;;3.50;20.90;;;;;;5073893;28;20797;-70
2022/12/14 13:05:11;;;;;;;276.92;255.63;;;3.40;21.30;;;;;;5075275;28;20182;-69